Bannock, OH (43972)

8:23 PM EDT on July 23, 2016 (GMT -0400)
Morristown, Ohio | | Change Station
Active Advisory: Special Statement

Elev 1283 ft 40.08 °N, 81.06 °W | Updated 7 minutes ago

Partly Cloudy
Partly Cloudy
75.6 °F
Feels Like 76 °F
N
0.0
Wind Variable Wind from ENE

Today
High -- | Low -- °F
--% Chance of Precip.
Yesterday
High -- | Low -- °F
Precip. -- in
Pressure 29.95 in
Visibility 10.0 miles
Clouds Few 6000 ft
Heat Index 76 °F
Dew Point 72 °F
Humidity 88%
Rainfall 0.26 in
Snow Depth Not available.
6:14 AM 8:45 PM
Waning Gibbous, 81% visible
METAR KHLG 232353Z 11007KT 10SM FEW060 28/23 A2997 RMK AO2 LTG DSNT W SLP140 60001 T02780228 10356 20272 53001
Pressure 29.95 in
Visibility 10.0 miles
Clouds Few 6000 ft
Heat Index 76 °F
Dew Point 72 °F
Humidity 88%
Rainfall 0.26 in
Snow Depth Not available.
6:14 AM 8:45 PM
Waning Gibbous, 81% visible
METAR KHLG 232353Z 11007KT 10SM FEW060 28/23 A2997 RMK AO2 LTG DSNT W SLP140 60001 T02780228 10356 20272 53001

10-Day Weather Forecast

Almanac

Astronomy

Jul. 23, 2016 Rise Set
Actual Time
Civil Twilight
Nautical Twilight
Astronomical Twilight
Moon
Length of Visible Light
Length of Day
Tomorrow will be .
, % of the Moon is Illuminated

Today's Extremes

State Highs State Lows

Community

WunderPhotos

Upload Photos

1,926,979 photos uploaded!

WunderBlog® & News

Nearby

Air Quality

  Air Quality AQ Index Pollutant
Not available.

Snow Depth

Station Depth Elevation

Earthquake Activity

City Distance Mag. Time & Date
Minimum magnitude displayed is 2.5.

Coastal Water Temperatures

Place Temperature

Stations

Nearby Weather Stations

Station Location Temp. Windchill Dew Point Humidity Wind Precip. Elev Updated Type
                   

Watches & Warnings

Special Statement
Issued: 8:10 PM EDT Jul. 23, 2016 – National Weather Service

... A thunderstorm will affect southeastern Belmont and west central
Marshall counties...

At 810 PM EDT... a thunderstorm was located over Glen Dale... or near
Moundsville... moving southeast at 55 mph.

Winds in excess of 40 mph and pea size hail are possible with this
storm.

Locations impacted include...
Moundsville... Shadyside... Powhatan Point... Glen Dale... Neffs...
Grove Oak... Glendale and grand vue park.

Lat... Lon 4000 8089 4002 8082 3987 8065 3981 8080
time... Mot... loc 0010z 324deg 49kt 3995 8081


24

810 PM EDT Sat Jul 23 2016

... A thunderstorm will affect southeastern Belmont and west central
Marshall counties...

At 810 PM EDT... a thunderstorm was located over Glen Dale... or near
Moundsville... moving southeast at 55 mph.

Winds in excess of 40 mph and pea size hail are possible with this
storm.

Locations impacted include...
Moundsville... Shadyside... Powhatan Point... Glen Dale... Neffs...
Grove Oak... Glendale and grand vue park.

Lat... Lon 4000 8089 4002 8082 3987 8065 3981 8080
time... Mot... loc 0010z 324deg 49kt 3995 8081


24